Details From KWHP - Whiteman
To KTOA - Torrance/ Zamperini Fld
Flight Number -
Tags Decoded
Created
Modified
Stats Distance 45 nm / 84 km
Max Altitude 0 ft / 0 m
Waypoints 6
Social Downloads 2
Likes 0
Share VATSIM

Download

Looking for another format? Having issues loading an existing format? Contact us
Advertisement - Login to hide

Notes

Decoded

Route

KWHP VNY SMO POPPR FERMY KTOA

ID Type Via Altitude Latitude Longitude Leg Dist Tot Dist Heading (true) Name
O KWHP APT - 0 ft / 0 m 34.26358˚ -118.41803˚ - 0 nm - -
VNY VOR - 0 ft / 0 m 34.22344˚ -118.49167˚ 4 nm 4 nm 237° / 237° VAN NUYS VOR-DME
SMO VOR - 0 ft / 0 m 34.01025˚ -118.45672˚ 12 nm 17 nm 172° / 172° SANTA MONICA VOR-DME
POPPR FIX - 0 ft / 0 m 33.84266˚ -118.28831˚ 13 nm 30 nm 140° / 140° -
FERMY FIX - 0 ft / 0 m 33.73318˚ -118.21918˚ 7 nm 37 nm 152° / 152° -
O KTOA APT - 0 ft / 0 m 33.80532˚ -118.34421˚ 7 nm 45 nm 305° / 305° -

Altitude Profile

Advertisement - Login to hide

KWHP

Details ICAO KWHP (WHP)
Name WHITEMAN
Region United States
Timezone America/Los_Angeles (UTC-8.0)
Stats Elevation 1,003 ft / 306 m (AMSL)
Location 34.259285° -118.413490°
Runways 1
Magnetic Variation 12.070° E

METAR

KWHP 110353Z 28006KT 10SM SKC 22/M14 A3019 RMK LAST

Decode

TAF

Not found

Departure Runways

ID Width Length Bearing (true) Bearing (mag) Surface Threshold Offset Overrun Length
12 75 ft / 23 m 4,164 ft / 1,269 m 138.87° 126.80° Asphalt 728 ft / 222 m 49 ft / 15 m
30 75 ft / 23 m 4,164 ft / 1,269 m 318.87° 306.80° Asphalt 479 ft / 146 m 69 ft / 21 m

KTOA

Details ICAO KTOA (TOA)
Name Torrance/Zamperini Field
Region United States
Timezone America/Los_Angeles (UTC-8.0)
Stats Elevation 103 ft / 31 m (AMSL)
Location 33.803279° -118.339807°
Runways 2
Magnetic Variation 11.966° E

METAR

KTOA 110350Z 36005KT 10SM BKN200 19/M06 A3013 RMK LAST

Decode

TAF

Not found

Destination Runways

ID Width Length Bearing (true) Bearing (mag) Surface Threshold Offset Overrun Length
11L 151 ft / 46 m 5,025 ft / 1,532 m 128.59° 116.62° Asphalt 541 ft / 165 m 0 ft / 0 m
11R 75 ft / 23 m 3,013 ft / 918 m 128.60° 116.63° Asphalt 0 ft / 0 m 26 ft / 8 m
29L 75 ft / 23 m 3,013 ft / 918 m 308.61° 296.64° Asphalt 0 ft / 0 m 26 ft / 8 m
29R 151 ft / 46 m 5,025 ft / 1,532 m 308.59° 296.62° Asphalt 541 ft / 165 m 0 ft / 0 m

Approach Navaids

Runway Type Ident Frequency Range Bearing (true) Bearing (mag) Slope Elevation
29R Localiser ITOA 111.90 MHz 18 nm / 33 km 308.61° 296.65° - 78 ft / 24 m (AMSL)
29R Glidescope ITOA 111.90 MHz 10 nm / 19 km 308.59° 296.62° 3.40° 96 ft / 29 m (AMSL)
29R DME ITOA 111.90 MHz 18 nm / 33 km - - - 96 ft / 29 m (AMSL)

Popular Alternatives